North Walpole, NH (03609)

6:52 AM EST on January 27, 2015 (GMT -0500)
HADS CONNECTICUT RIVER NEAR NORTH WAL NH US USARMY-COE | Change Station
CLOSE
Current Station
Personal Weather Station
Location: North Walpole, NH
Elevation: 220 ft
Nearby Weather Stations
Active Advisory: Winter Storm Warning Active Notice: Public Information Statement

Elev 220 ft 43.13 °N, 72.44 °W | Updated 1 hour ago

Snow
Snow
14 °F
Feels Like 14 °F
N
Wind Variable Wind from North
Gusts 0.0 mph

Today
High -- | Low -- °F
--% Chance of Precip.
Yesterday
High -- | Low -- °F
Precip. -- in
7:10 AM 4:55 PM
First Quarter, 53% visible
Pressure 29.83 in
Visibility 0.8 miles
Clouds
Windchill 14 °F
Dew Point Not available.
Humidity Not available.
Rainfall 0.00 in
Snow Depth Not available.
UV Not available.
Pollen .10 out of 12
Air Quality Not available.
Flu Activity Not available.
METAR KVSF 271054Z AUTO 35007G17KT 3/4SM -SN VV013 M11/M14 A2980 RMK AO2 SLP101 P0002 T11111139 TSNO

More Conditions Fewer Conditions

Pressure 29.83 in
Visibility 0.8 miles
Clouds
Windchill 14 °F
Dew Point Not available.
Humidity Not available.
Rainfall 0.00 in
Snow Depth Not available.
UV Not available.
Pollen .10 out of 12
Air Quality Not available.
Flu Activity Not available.
METAR KVSF 271054Z AUTO 35007G17KT 3/4SM -SN VV013 M11/M14 A2980 RMK AO2 SLP101 P0002 T11111139 TSNO

More Conditions Fewer Conditions

10-Day Weather Forecast

Almanac

Astronomy

Jan. 27, 2015 Rise Set
Actual Time
Civil Twilight
Nautical Twilight
Astronomical Twilight
Moon
Length of Visible Light
Length of Day
Tomorrow will be .
, % of the Moon is Illuminated

Today's Extremes

State Highs State Lows

Community

WunderPhotos

Upload Photos

1,790,566 photos uploaded!

WunderBlogs® & News

Nearby

Air Quality

  Air Quality AQ Index Pollutant
Not available.

Snow Depth

Station Depth Elevation

Earthquake Activity

City Distance Mag. Time & Date
Minimum magnitude displayed is 2.5.

Coastal Water Temperatures

Place Temperature

Nearby Weather Stations